createdAt,value
2023-12-09T00:00:21.556Z,1008.73
2023-12-09T00:02:06.557Z,1008.78
2023-12-09T00:03:51.585Z,1008.66
2023-12-09T00:05:36.593Z,1008.76
2023-12-09T00:07:21.544Z,1008.86
2023-12-09T00:09:06.532Z,1008.73
2023-12-09T00:10:51.572Z,1008.81
2023-12-09T00:12:36.571Z,1008.75
2023-12-09T00:14:21.649Z,1008.78
2023-12-09T00:16:06.508Z,1008.81
2023-12-09T00:17:51.631Z,1008.76
2023-12-09T00:19:36.627Z,1008.64
2023-12-09T00:21:21.623Z,1008.74
2023-12-09T00:23:06.608Z,1008.77
2023-12-09T00:24:51.562Z,1008.66
2023-12-09T00:26:36.585Z,1008.65
2023-12-09T00:28:21.540Z,1008.61
2023-12-09T00:30:06.865Z,1008.69
2023-12-09T00:31:51.570Z,1008.75
2023-12-09T00:33:36.736Z,1008.7
2023-12-09T00:35:21.565Z,1008.7
2023-12-09T00:37:06.546Z,1008.69
2023-12-09T00:38:51.613Z,1008.71
2023-12-09T00:40:36.594Z,1008.79
2023-12-09T00:42:21.655Z,1008.73
2023-12-09T00:44:06.612Z,1008.81
2023-12-09T00:45:51.573Z,1008.74
2023-12-09T00:47:36.730Z,1008.84
2023-12-09T00:49:21.661Z,1008.87
2023-12-09T00:51:06.610Z,1008.83
2023-12-09T00:52:51.563Z,1008.89
2023-12-09T00:54:36.618Z,1008.83
2023-12-09T00:56:32.630Z,1008.79
2023-12-09T00:58:06.611Z,1008.75
2023-12-09T00:59:51.662Z,1008.7
2023-12-09T01:01:36.599Z,1008.8
2023-12-09T01:03:21.729Z,1008.79
2023-12-09T01:05:06.674Z,1008.78
2023-12-09T01:06:51.625Z,1008.73
2023-12-09T01:08:36.602Z,1008.7
2023-12-09T01:10:21.639Z,1008.76
2023-12-09T01:12:06.665Z,1008.77
2023-12-09T01:13:51.619Z,1008.76
2023-12-09T01:15:36.677Z,1008.71
2023-12-09T01:17:21.619Z,1008.91
2023-12-09T01:19:06.615Z,1008.8
2023-12-09T01:20:51.742Z,1008.82
2023-12-09T01:22:36.692Z,1008.87
2023-12-09T01:24:21.683Z,1008.78
2023-12-09T01:26:06.671Z,1008.84
2023-12-09T01:27:51.663Z,1008.69
2023-12-09T01:29:36.633Z,1008.73
2023-12-09T01:31:21.958Z,1008.66
2023-12-09T01:33:06.755Z,1008.59
2023-12-09T01:34:51.656Z,1008.56
2023-12-09T01:36:37.025Z,1008.5
2023-12-09T01:38:21.650Z,1008.52
2023-12-09T01:40:06.661Z,1008.66
2023-12-09T01:41:51.667Z,1008.58
2023-12-09T01:43:36.756Z,1008.65
2023-12-09T01:45:21.720Z,1008.74
2023-12-09T01:47:06.688Z,1008.69
2023-12-09T01:48:51.818Z,1008.68
2023-12-09T01:50:36.736Z,1008.74
2023-12-09T01:52:21.721Z,1008.77
2023-12-09T01:54:06.690Z,1008.68
2023-12-09T01:55:51.690Z,1008.77
2023-12-09T01:57:36.669Z,1008.72
2023-12-09T01:59:21.690Z,1008.66
2023-12-09T02:01:06.733Z,1008.77
2023-12-09T02:02:51.801Z,1008.79
2023-12-09T02:04:36.740Z,1008.77
2023-12-09T02:06:21.723Z,1008.73
2023-12-09T02:08:06.782Z,1008.78
2023-12-09T02:09:51.731Z,1008.65
2023-12-09T02:11:36.701Z,1008.65
2023-12-09T02:13:21.722Z,1008.56
2023-12-09T02:15:06.803Z,1008.51
2023-12-09T02:16:51.741Z,1008.52
2023-12-09T02:18:36.761Z,1008.45
2023-12-09T02:20:21.734Z,1008.47
2023-12-09T02:22:06.813Z,1008.36
2023-12-09T02:23:51.794Z,1008.31
2023-12-09T02:25:36.721Z,1008.34
2023-12-09T02:27:22.106Z,1008.37
2023-12-09T02:29:06.760Z,1008.35
2023-12-09T02:30:51.720Z,1008.25
2023-12-09T02:32:36.777Z,1008.2
2023-12-09T02:34:22.069Z,1008.07
2023-12-09T02:36:06.798Z,1008.15
2023-12-09T02:37:51.721Z,1008.18
2023-12-09T02:39:36.788Z,1008.17
2023-12-09T02:41:21.755Z,1008.12
2023-12-09T02:43:06.764Z,1008.09
2023-12-09T02:44:51.797Z,1008.21
2023-12-09T02:46:36.774Z,1008.12
2023-12-09T02:48:21.846Z,1008.06
2023-12-09T02:50:06.783Z,1008.04
2023-12-09T02:51:51.769Z,1008.08
2023-12-09T02:53:36.788Z,1007.93
2023-12-09T02:55:21.819Z,1008.02
2023-12-09T02:57:06.864Z,1007.99
2023-12-09T02:58:51.754Z,1008.09
2023-12-09T03:00:36.853Z,1008
2023-12-09T03:02:21.782Z,1008.04
2023-12-09T03:04:06.904Z,1008.07
2023-12-09T03:05:51.828Z,1007.97
2023-12-09T03:07:36.782Z,1007.91
2023-12-09T03:09:21.836Z,1007.94
2023-12-09T03:11:06.835Z,1007.96
2023-12-09T03:12:51.846Z,1007.9
2023-12-09T03:14:36.775Z,1007.84
2023-12-09T03:16:21.811Z,1007.86
2023-12-09T03:18:06.946Z,1007.84
2023-12-09T03:19:51.854Z,1007.71
2023-12-09T03:21:36.804Z,1007.88
2023-12-09T03:23:21.847Z,1007.76
2023-12-09T03:25:06.818Z,1007.8
2023-12-09T03:26:51.863Z,1007.77
2023-12-09T03:28:36.850Z,1007.89
2023-12-09T03:30:21.856Z,1007.73
2023-12-09T03:32:06.824Z,1007.73
2023-12-09T03:33:51.930Z,1007.73
2023-12-09T03:35:36.822Z,1007.67
2023-12-09T03:37:21.836Z,1007.7
2023-12-09T03:39:06.854Z,1007.73
2023-12-09T03:40:51.847Z,1007.63
2023-12-09T03:42:37.144Z,1007.54
2023-12-09T03:44:21.816Z,1007.57
2023-12-09T03:46:06.842Z,1007.56
2023-12-09T03:47:52.018Z,1007.59
2023-12-09T03:49:36.938Z,1007.6
2023-12-09T03:51:21.850Z,1007.54
2023-12-09T03:53:06.857Z,1007.59
2023-12-09T03:54:51.841Z,1007.63
2023-12-09T03:56:36.840Z,1007.54
2023-12-09T03:58:21.871Z,1007.69
2023-12-09T04:00:06.845Z,1007.66
2023-12-09T04:01:51.832Z,1007.65
2023-12-09T04:03:36.999Z,1007.61
2023-12-09T04:05:21.940Z,1007.59
2023-12-09T04:07:06.846Z,1007.66
2023-12-09T04:08:51.940Z,1007.55
2023-12-09T04:10:36.879Z,1007.76
2023-12-09T04:12:21.955Z,1007.68
2023-12-09T04:14:06.897Z,1007.61
2023-12-09T04:15:51.874Z,1007.54
2023-12-09T04:17:36.868Z,1007.73
2023-12-09T04:19:22.045Z,1007.54
2023-12-09T04:21:06.886Z,1007.55
2023-12-09T04:22:51.911Z,1007.57
2023-12-09T04:24:36.883Z,1007.55
2023-12-09T04:26:21.896Z,1007.61
2023-12-09T04:28:06.847Z,1007.48
2023-12-09T04:29:51.947Z,1007.57
2023-12-09T04:31:36.885Z,1007.64
2023-12-09T04:33:21.920Z,1007.59
2023-12-09T04:35:06.903Z,1007.52
2023-12-09T04:36:51.937Z,1007.53
2023-12-09T04:38:36.937Z,1007.49
2023-12-09T04:40:21.879Z,1007.41
2023-12-09T04:42:06.914Z,1007.43
2023-12-09T04:43:51.920Z,1007.4
2023-12-09T04:45:36.958Z,1007.39
2023-12-09T04:47:22.188Z,1007.29
2023-12-09T04:49:07.043Z,1007.19
2023-12-09T04:50:51.929Z,1007.26
2023-12-09T04:52:36.895Z,1007.23
2023-12-09T04:54:21.968Z,1007.26
2023-12-09T04:56:06.955Z,1007.21
2023-12-09T04:57:51.892Z,1007.21
2023-12-09T04:59:36.927Z,1007.15
2023-12-09T05:01:21.981Z,1007.23
2023-12-09T05:03:06.992Z,1007.17
2023-12-09T05:04:51.924Z,1007.13
2023-12-09T05:06:36.944Z,1007.18
2023-12-09T05:08:21.921Z,1007.27
2023-12-09T05:10:06.919Z,1007.21
2023-12-09T05:11:51.907Z,1007.2
2023-12-09T05:13:36.920Z,1007.12
2023-12-09T05:15:21.949Z,1007.23
2023-12-09T05:17:07.001Z,1007.26
2023-12-09T05:18:52.061Z,1007.1
2023-12-09T05:20:36.961Z,1006.97
2023-12-09T05:22:21.919Z,1007.1
2023-12-09T05:24:07.028Z,1007.14
2023-12-09T05:25:51.975Z,1006.99
2023-12-09T05:27:36.957Z,1007.04
2023-12-09T05:29:21.963Z,1007.02
2023-12-09T05:31:06.967Z,1006.91
2023-12-09T05:32:52.184Z,1006.94
2023-12-09T05:34:37.086Z,1006.93
2023-12-09T05:36:21.962Z,1006.97
2023-12-09T05:38:07.001Z,1006.93
2023-12-09T05:39:52.018Z,1006.88
2023-12-09T05:41:36.967Z,1006.87
2023-12-09T05:43:21.997Z,1006.79
2023-12-09T05:45:06.985Z,1006.8
2023-12-09T05:46:51.975Z,1006.78
2023-12-09T05:48:37.266Z,1006.73
2023-12-09T05:50:21.960Z,1006.87
2023-12-09T05:52:06.956Z,1006.77
2023-12-09T05:53:51.997Z,1006.86
2023-12-09T05:55:36.967Z,1006.81
2023-12-09T05:57:22.031Z,1006.79
2023-12-09T05:59:06.990Z,1006.69
2023-12-09T06:00:52.084Z,1006.76
2023-12-09T06:02:37.011Z,1006.61
2023-12-09T06:04:22.572Z,1006.6
2023-12-09T06:06:07.045Z,1006.71
2023-12-09T06:07:51.979Z,1006.64
2023-12-09T06:09:37.077Z,1006.55
2023-12-09T06:11:21.999Z,1006.57
2023-12-09T06:13:07.008Z,1006.48
2023-12-09T06:14:52.011Z,1006.55
2023-12-09T06:16:37.004Z,1006.48
2023-12-09T06:18:22.089Z,1006.49
2023-12-09T06:20:07.156Z,1006.54
2023-12-09T06:21:52.005Z,1006.55
2023-12-09T06:23:37.026Z,1006.56
2023-12-09T06:25:22.040Z,1006.6
2023-12-09T06:27:07.092Z,1006.55
2023-12-09T06:28:52.024Z,1006.57
2023-12-09T06:30:37.114Z,1006.54
2023-12-09T06:32:22.021Z,1006.56
2023-12-09T06:34:07.183Z,1006.47
2023-12-09T06:35:52.045Z,1006.49
2023-12-09T06:37:37.075Z,1006.37
2023-12-09T06:39:22.028Z,1006.43
2023-12-09T06:41:07.047Z,1006.38
2023-12-09T06:42:52.062Z,1006.27
2023-12-09T06:44:37.071Z,1006.35
2023-12-09T06:46:22.046Z,1006.29
2023-12-09T06:48:07.125Z,1006.29
2023-12-09T06:49:52.450Z,1006.28
2023-12-09T06:51:37.092Z,1006.22
2023-12-09T06:53:22.035Z,1006.17
2023-12-09T06:55:07.086Z,1006.32
2023-12-09T06:56:52.030Z,1006.35
2023-12-09T06:58:37.030Z,1006.33
2023-12-09T07:00:22.102Z,1006.27
2023-12-09T07:02:07.037Z,1006.24
2023-12-09T07:03:52.299Z,1006.12
2023-12-09T07:05:37.163Z,1006.15
2023-12-09T07:07:22.414Z,1006.16
2023-12-09T07:09:07.098Z,1006.03
2023-12-09T07:10:52.096Z,1006.13
2023-12-09T07:12:37.097Z,1005.97
2023-12-09T07:14:22.079Z,1006.02
2023-12-09T07:16:07.100Z,1005.97
2023-12-09T07:17:52.196Z,1006.04
2023-12-09T07:19:37.180Z,1006.15
2023-12-09T07:21:22.104Z,1005.95
2023-12-09T07:23:07.142Z,1005.98
2023-12-09T07:24:52.072Z,1005.78
2023-12-09T07:26:37.118Z,1005.83
2023-12-09T07:28:22.152Z,1005.7
2023-12-09T07:30:07.213Z,1005.65
2023-12-09T07:31:52.119Z,1005.78
2023-12-09T07:33:37.231Z,1005.56
2023-12-09T07:35:22.167Z,1005.62
2023-12-09T07:37:07.112Z,1005.48
2023-12-09T07:38:52.139Z,1005.51
2023-12-09T07:40:37.125Z,1005.53
2023-12-09T07:42:22.561Z,1005.47
2023-12-09T07:44:07.109Z,1005.43
2023-12-09T07:45:52.145Z,1005.39
2023-12-09T07:47:37.174Z,1005.39
2023-12-09T07:49:22.264Z,1005.33
2023-12-09T07:51:07.142Z,1005.19
2023-12-09T07:52:52.153Z,1005.24
2023-12-09T07:54:37.174Z,1005.14
2023-12-09T07:56:22.112Z,1005.15
2023-12-09T07:58:07.150Z,1005.14
2023-12-09T07:59:52.173Z,1005.05
2023-12-09T08:01:37.216Z,1005.12
2023-12-09T08:03:22.291Z,1004.93
2023-12-09T08:05:07.167Z,1005.05
2023-12-09T08:06:52.149Z,1005.05
2023-12-09T08:08:37.180Z,1005.11
2023-12-09T08:10:22.193Z,1005
2023-12-09T08:12:07.148Z,1004.92
2023-12-09T08:13:52.176Z,1004.96
2023-12-09T08:15:37.242Z,1004.78
2023-12-09T08:17:22.186Z,1004.81
2023-12-09T08:19:07.205Z,1004.82
2023-12-09T08:20:52.164Z,1004.67
2023-12-09T08:22:37.229Z,1004.67
2023-12-09T08:24:22.219Z,1004.6
2023-12-09T08:26:07.196Z,1004.58
2023-12-09T08:27:52.199Z,1004.66
2023-12-09T08:29:37.201Z,1004.63
2023-12-09T08:31:22.188Z,1004.66
2023-12-09T08:33:07.299Z,1004.65
2023-12-09T08:34:57.128Z,1004.68
2023-12-09T08:36:37.210Z,1004.63
2023-12-09T08:38:22.188Z,1004.77
2023-12-09T08:40:07.210Z,1004.67
2023-12-09T08:41:52.210Z,1004.76
2023-12-09T08:43:37.205Z,1004.73
2023-12-09T08:45:22.249Z,1004.77
2023-12-09T08:47:07.539Z,1004.74
2023-12-09T08:48:52.367Z,1004.73
2023-12-09T08:50:37.233Z,1004.72
2023-12-09T08:52:22.244Z,1004.68
2023-12-09T08:54:09.422Z,1004.56
2023-12-09T08:55:52.212Z,1004.62
2023-12-09T08:57:37.354Z,1004.63
2023-12-09T08:59:22.231Z,1004.62
2023-12-09T09:01:07.326Z,1004.54
2023-12-09T09:02:52.244Z,1004.71
2023-12-09T09:04:37.283Z,1004.63
2023-12-09T09:06:22.260Z,1004.68
2023-12-09T09:08:07.378Z,1004.55
2023-12-09T09:09:52.237Z,1004.51
2023-12-09T09:11:37.280Z,1004.46
2023-12-09T09:13:22.284Z,1004.48
2023-12-09T09:15:08.246Z,1004.39
2023-12-09T09:16:52.256Z,1004.23
2023-12-09T09:18:37.516Z,1004.22
2023-12-09T09:20:22.223Z,1004.16
2023-12-09T09:22:07.275Z,1004.15
2023-12-09T09:23:52.230Z,1004.11
2023-12-09T09:25:37.233Z,1004.11
2023-12-09T09:27:22.307Z,1004.16
2023-12-09T09:29:07.998Z,1004.05
2023-12-09T09:30:52.286Z,1004.01
2023-12-09T09:32:37.346Z,1004.11
2023-12-09T09:34:22.388Z,1004.11
2023-12-09T09:36:07.294Z,1004.11
2023-12-09T09:37:55.028Z,1004.05
2023-12-09T09:39:37.347Z,1003.89
2023-12-09T09:41:22.293Z,1003.73
2023-12-09T09:43:07.316Z,1003.82
2023-12-09T09:44:52.315Z,1003.7
2023-12-09T09:46:37.294Z,1003.56
2023-12-09T09:48:22.405Z,1003.52
2023-12-09T09:50:07.335Z,1003.46
2023-12-09T09:51:52.343Z,1003.37
2023-12-09T09:53:37.347Z,1003.32
2023-12-09T09:55:22.309Z,1003.16
2023-12-09T09:57:07.327Z,1003.19
2023-12-09T09:58:52.328Z,1003.02
2023-12-09T10:00:37.480Z,1002.96
2023-12-09T10:02:22.342Z,1002.98
2023-12-09T10:04:07.324Z,1002.95
2023-12-09T10:05:52.311Z,1002.86
2023-12-09T10:07:37.352Z,1002.85
2023-12-09T10:09:22.455Z,1002.73
2023-12-09T10:11:07.321Z,1002.8
2023-12-09T10:12:52.407Z,1002.65
2023-12-09T10:14:37.350Z,1002.7
2023-12-09T10:16:22.400Z,1002.75
2023-12-09T10:18:07.488Z,1002.64
2023-12-09T10:19:52.391Z,1002.71
2023-12-09T10:21:37.437Z,1002.58
2023-12-09T10:23:22.315Z,1002.68
2023-12-09T10:25:07.369Z,1002.6
2023-12-09T10:26:52.342Z,1002.58
2023-12-09T10:28:37.328Z,1002.5
2023-12-09T10:30:22.397Z,1002.48
2023-12-09T10:32:07.412Z,1002.42
2023-12-09T10:33:52.419Z,1002.39
2023-12-09T10:35:37.336Z,1002.34
2023-12-09T10:37:23.091Z,1002.31
2023-12-09T10:39:07.361Z,1002.33
2023-12-09T10:40:52.332Z,1002.2
2023-12-09T10:42:37.373Z,1002.14
2023-12-09T10:44:22.364Z,1002.05
2023-12-09T10:46:07.362Z,1002.03
2023-12-09T10:47:52.416Z,1001.97
2023-12-09T10:49:37.389Z,1001.83
2023-12-09T10:51:22.384Z,1001.8
2023-12-09T10:53:07.361Z,1001.61
2023-12-09T10:54:52.336Z,1001.53
2023-12-09T10:56:37.392Z,1001.53
2023-12-09T10:58:22.367Z,1001.52
2023-12-09T11:00:07.458Z,1001.5
2023-12-09T11:01:52.392Z,1001.35
2023-12-09T11:03:37.483Z,1001.42
2023-12-09T11:05:22.499Z,1001.4
2023-12-09T11:07:07.380Z,1001.23
2023-12-09T11:08:52.372Z,1001.06
2023-12-09T11:10:37.380Z,1001.09
2023-12-09T11:12:22.438Z,1000.99
2023-12-09T11:14:07.409Z,1000.84
2023-12-09T11:15:52.418Z,1000.87
2023-12-09T11:17:37.643Z,1000.85
2023-12-09T11:19:22.478Z,1000.78
2023-12-09T11:21:07.481Z,1000.77
2023-12-09T11:22:52.459Z,1000.65
2023-12-09T11:24:37.422Z,1000.51
2023-12-09T11:26:22.404Z,1000.45
2023-12-09T11:28:07.423Z,1000.41
2023-12-09T11:29:52.437Z,1000.27
2023-12-09T11:31:37.464Z,1000.21
2023-12-09T11:33:22.501Z,1000.11
2023-12-09T11:35:07.437Z,1000
2023-12-09T11:36:52.699Z,999.98
2023-12-09T11:38:37.418Z,999.85
2023-12-09T11:40:22.419Z,999.8
2023-12-09T11:42:09.052Z,999.83
2023-12-09T11:43:52.478Z,999.83
2023-12-09T11:45:37.507Z,999.92
2023-12-09T11:47:22.490Z,999.85
2023-12-09T11:49:07.558Z,999.83
2023-12-09T11:50:52.498Z,999.78
2023-12-09T11:52:37.484Z,999.68
2023-12-09T11:54:22.551Z,999.66
2023-12-09T11:56:07.444Z,999.51
2023-12-09T11:57:52.470Z,999.61
2023-12-09T11:59:37.457Z,999.54
2023-12-09T12:01:22.506Z,999.45
2023-12-09T12:03:07.579Z,999.41
2023-12-09T12:04:52.500Z,999.35
2023-12-09T12:06:37.487Z,999.3
2023-12-09T12:08:22.465Z,999.28
2023-12-09T12:10:07.485Z,999.29
2023-12-09T12:11:52.478Z,999.21
2023-12-09T12:13:37.465Z,999.09
2023-12-09T12:15:22.520Z,999.1
2023-12-09T12:17:07.475Z,999.04
2023-12-09T12:18:52.558Z,998.86
2023-12-09T12:20:37.536Z,998.84
2023-12-09T12:22:22.537Z,998.72
2023-12-09T12:24:07.584Z,998.65
2023-12-09T12:25:52.508Z,998.6
2023-12-09T12:27:37.531Z,998.41
2023-12-09T12:29:22.515Z,998.36
2023-12-09T12:31:07.844Z,998.29
2023-12-09T12:32:54.522Z,998.21
2023-12-09T12:34:37.597Z,998.2
2023-12-09T12:36:22.607Z,998.03
2023-12-09T12:38:07.552Z,997.96
2023-12-09T12:39:52.513Z,997.89
2023-12-09T12:41:37.550Z,997.73
2023-12-09T12:43:22.523Z,997.67
2023-12-09T12:45:07.555Z,997.57
2023-12-09T12:46:52.560Z,997.45
2023-12-09T12:48:37.670Z,997.34
2023-12-09T12:50:22.808Z,997.23
2023-12-09T12:52:07.592Z,997.14
2023-12-09T12:53:52.544Z,997.23
2023-12-09T12:55:37.528Z,997.16
2023-12-09T12:57:22.542Z,997.11
2023-12-09T12:59:07.563Z,997.09
2023-12-09T13:00:52.568Z,996.98
2023-12-09T13:02:37.553Z,997.01
2023-12-09T13:04:22.610Z,996.93
2023-12-09T13:06:07.663Z,996.82
2023-12-09T13:07:52.555Z,996.71
2023-12-09T13:09:37.626Z,996.52
2023-12-09T13:11:22.575Z,996.59
2023-12-09T13:13:07.541Z,996.47
2023-12-09T13:14:52.528Z,996.51
2023-12-09T13:16:37.560Z,996.56
2023-12-09T13:18:23.026Z,996.29
2023-12-09T13:20:07.617Z,996.2
2023-12-09T13:21:52.569Z,996.2
2023-12-09T13:23:37.710Z,996.13
2023-12-09T13:25:22.621Z,996.11
2023-12-09T13:27:07.588Z,995.88
2023-12-09T13:28:52.578Z,995.92
2023-12-09T13:30:37.642Z,995.7
2023-12-09T13:32:22.578Z,995.74
2023-12-09T13:34:07.653Z,995.68
2023-12-09T13:35:52.621Z,995.64
2023-12-09T13:37:37.630Z,995.5
2023-12-09T13:39:22.623Z,995.5
2023-12-09T13:41:07.646Z,995.56
2023-12-09T13:42:52.666Z,995.49
2023-12-09T13:44:39.738Z,995.43
2023-12-09T13:46:22.629Z,995.46
2023-12-09T13:48:07.796Z,995.61
2023-12-09T13:49:52.739Z,995.49
2023-12-09T13:51:37.671Z,995.46
2023-12-09T13:53:22.618Z,995.3
2023-12-09T13:55:07.671Z,995.2
2023-12-09T13:56:52.692Z,995.16
2023-12-09T13:58:37.668Z,995.05
2023-12-09T14:00:22.678Z,995.13
2023-12-09T14:02:07.686Z,995.06
2023-12-09T14:03:53.006Z,994.91
2023-12-09T14:05:37.719Z,994.89
2023-12-09T14:07:22.665Z,994.69
2023-12-09T14:09:07.737Z,994.61
2023-12-09T14:10:52.660Z,994.64
2023-12-09T14:12:37.782Z,994.58
2023-12-09T14:14:22.696Z,994.5
2023-12-09T14:16:07.664Z,994.39
2023-12-09T14:17:52.750Z,994.15
2023-12-09T14:19:37.743Z,994.14
2023-12-09T14:21:22.672Z,994.12
2023-12-09T14:23:07.631Z,994.14
2023-12-09T14:24:52.667Z,994.13
2023-12-09T14:26:37.998Z,994.06
2023-12-09T14:28:22.712Z,993.82
2023-12-09T14:30:07.748Z,993.89
2023-12-09T14:31:52.700Z,993.75
2023-12-09T14:33:37.818Z,993.65
2023-12-09T14:35:22.726Z,993.57
2023-12-09T14:37:07.690Z,993.55
2023-12-09T14:38:52.703Z,993.49
2023-12-09T14:40:37.676Z,993.39
2023-12-09T14:42:22.726Z,993.31
2023-12-09T14:44:08.844Z,993.34
2023-12-09T14:45:52.673Z,993.42
2023-12-09T14:47:37.745Z,993.26
2023-12-09T14:49:23.379Z,993.28
2023-12-09T14:51:07.777Z,993.17
2023-12-09T14:52:52.726Z,993.17
2023-12-09T14:54:37.711Z,993.15
2023-12-09T14:56:22.688Z,993.11
2023-12-09T14:58:08.098Z,993.07
2023-12-09T14:59:52.730Z,992.96
2023-12-09T15:01:37.744Z,992.92
2023-12-09T15:03:22.809Z,992.78
2023-12-09T15:05:07.847Z,992.69
2023-12-09T15:06:52.766Z,992.41
2023-12-09T15:08:37.751Z,992.41
2023-12-09T15:10:22.756Z,992.4
2023-12-09T15:12:07.769Z,992.26
2023-12-09T15:13:52.744Z,992.31
2023-12-09T15:15:37.808Z,992.19
2023-12-09T15:17:22.754Z,992.02
2023-12-09T15:19:07.789Z,991.88
2023-12-09T15:20:52.782Z,991.71
2023-12-09T15:22:37.749Z,991.74
2023-12-09T15:24:22.800Z,991.76
2023-12-09T15:26:07.773Z,991.58
2023-12-09T15:27:52.770Z,991.61
2023-12-09T15:29:37.747Z,991.51
2023-12-09T15:31:22.789Z,991.5
2023-12-09T15:33:07.842Z,991.52
2023-12-09T15:34:52.846Z,991.43
2023-12-09T15:36:37.740Z,991.44
2023-12-09T15:38:22.795Z,991.45
2023-12-09T15:40:07.765Z,991.33
2023-12-09T15:41:52.766Z,991.33
2023-12-09T15:43:37.766Z,991.17
2023-12-09T15:45:22.821Z,991.05
2023-12-09T15:47:07.781Z,991.09
2023-12-09T15:48:52.798Z,991.01
2023-12-09T15:50:37.796Z,991.08
2023-12-09T15:52:22.793Z,991.04
2023-12-09T15:54:07.808Z,990.91
2023-12-09T15:55:52.810Z,990.78
2023-12-09T15:57:37.782Z,990.75
2023-12-09T15:59:22.774Z,990.64
2023-12-09T16:01:07.836Z,990.63
2023-12-09T16:02:52.897Z,990.61
2023-12-09T16:04:37.766Z,990.54
2023-12-09T16:06:22.801Z,990.61
2023-12-09T16:08:07.813Z,990.66
2023-12-09T16:09:55.409Z,990.63
2023-12-09T16:11:37.769Z,990.57
2023-12-09T16:13:22.812Z,990.5
2023-12-09T16:15:08.191Z,990.5
2023-12-09T16:16:52.776Z,990.58
2023-12-09T16:18:37.952Z,990.58
2023-12-09T16:20:23.537Z,990.43
2023-12-09T16:22:07.799Z,990.48
2023-12-09T16:23:52.818Z,990.43
2023-12-09T16:25:37.785Z,990.5
2023-12-09T16:27:22.864Z,990.5
2023-12-09T16:29:07.823Z,990.44
2023-12-09T16:30:52.908Z,990.5
2023-12-09T16:32:37.829Z,990.47
2023-12-09T16:34:22.963Z,990.47
2023-12-09T16:36:07.910Z,990.38
2023-12-09T16:37:52.855Z,990.41
2023-12-09T16:39:37.844Z,990.35
2023-12-09T16:41:22.895Z,990.27
2023-12-09T16:43:07.854Z,990.26
2023-12-09T16:44:52.852Z,990.27
2023-12-09T16:46:37.887Z,990.32
2023-12-09T16:48:22.965Z,990.21
2023-12-09T16:50:09.773Z,990.22
2023-12-09T16:51:52.885Z,990.23
2023-12-09T16:53:37.859Z,990.15
2023-12-09T16:55:22.948Z,990.28
2023-12-09T16:57:07.908Z,990.21
2023-12-09T16:58:52.891Z,990.15
2023-12-09T17:00:37.917Z,990.25
2023-12-09T17:02:22.865Z,990.23
2023-12-09T17:04:08.029Z,990.03
2023-12-09T17:05:52.931Z,990.16
2023-12-09T17:07:37.880Z,990.27
2023-12-09T17:09:23.018Z,990.14
2023-12-09T17:11:07.901Z,990.01
2023-12-09T17:12:52.912Z,990.07
2023-12-09T17:14:37.940Z,990.06
2023-12-09T17:16:22.930Z,990.11
2023-12-09T17:18:08.057Z,989.94
2023-12-09T17:19:52.925Z,990.1
2023-12-09T17:21:38.260Z,990.11
2023-12-09T17:23:22.939Z,990.07
2023-12-09T17:25:07.994Z,990.01
2023-12-09T17:26:52.923Z,990.09
2023-12-09T17:28:37.951Z,990.04
2023-12-09T17:30:22.924Z,990.05
2023-12-09T17:32:07.935Z,989.99
2023-12-09T17:33:52.988Z,990.07
2023-12-09T17:35:37.960Z,990.21
2023-12-09T17:37:23.027Z,990.03
2023-12-09T17:39:07.939Z,990.05
2023-12-09T17:40:52.946Z,989.97
2023-12-09T17:42:37.972Z,990.06
2023-12-09T17:44:23.005Z,990.01
2023-12-09T17:46:07.961Z,989.93
2023-12-09T17:47:53.012Z,990.04
2023-12-09T17:49:38.087Z,989.95
2023-12-09T17:51:23.061Z,989.98
2023-12-09T17:53:08.063Z,989.98
2023-12-09T17:54:52.998Z,989.87
2023-12-09T17:56:37.969Z,989.9
2023-12-09T17:58:23.015Z,989.92
2023-12-09T18:00:08.023Z,989.7
2023-12-09T18:01:53.021Z,989.74
2023-12-09T18:03:38.087Z,989.7
2023-12-09T18:05:23.052Z,989.64
2023-12-09T18:07:07.999Z,989.67
2023-12-09T18:08:53.397Z,989.8
2023-12-09T18:10:38.022Z,989.76
2023-12-09T18:12:23.179Z,989.75
2023-12-09T18:14:07.999Z,989.76
2023-12-09T18:15:53.094Z,989.77
2023-12-09T18:17:38.095Z,989.66
2023-12-09T18:19:23.044Z,989.73
2023-12-09T18:21:08.046Z,989.67
2023-12-09T18:22:53.032Z,989.6
2023-12-09T18:24:38.139Z,989.79
2023-12-09T18:26:23.009Z,989.87
2023-12-09T18:28:08.024Z,990.09
2023-12-09T18:29:53.077Z,989.96
2023-12-09T18:31:38.443Z,989.84
2023-12-09T18:33:23.244Z,989.99
2023-12-09T18:35:08.054Z,989.93
2023-12-09T18:36:53.049Z,989.79
2023-12-09T18:38:38.034Z,989.69
2023-12-09T18:40:23.181Z,989.69
2023-12-09T18:42:08.074Z,989.7
2023-12-09T18:43:53.067Z,989.75
2023-12-09T18:45:38.131Z,989.77
2023-12-09T18:47:23.050Z,989.85
2023-12-09T18:49:08.134Z,989.96
2023-12-09T18:50:55.413Z,990.01
2023-12-09T18:52:38.059Z,990.11
2023-12-09T18:54:23.092Z,990.15
2023-12-09T18:56:08.089Z,990.08
2023-12-09T18:57:53.115Z,990.17
2023-12-09T18:59:38.057Z,990.1
2023-12-09T19:01:23.298Z,990.13
2023-12-09T19:03:08.133Z,990.11
2023-12-09T19:04:53.136Z,990.17
2023-12-09T19:06:42.379Z,990.16
2023-12-09T19:08:23.065Z,990.12
2023-12-09T19:10:08.108Z,990.12
2023-12-09T19:11:53.099Z,990.11
2023-12-09T19:13:38.082Z,990.13
2023-12-09T19:15:23.155Z,990.33
2023-12-09T19:17:08.117Z,990.18
2023-12-09T19:18:53.135Z,990.31
2023-12-09T19:20:38.146Z,990.2
2023-12-09T19:22:23.093Z,990.33
2023-12-09T19:24:08.113Z,990.3
2023-12-09T19:25:53.108Z,990.26
2023-12-09T19:27:38.167Z,990.31
2023-12-09T19:29:23.104Z,990.3
2023-12-09T19:31:08.159Z,990.26
2023-12-09T19:32:53.104Z,990.25
2023-12-09T19:34:38.244Z,990.18
2023-12-09T19:36:23.089Z,990.25
2023-12-09T19:38:08.096Z,990.37
2023-12-09T19:39:53.138Z,990.23
2023-12-09T19:41:38.135Z,990.36
2023-12-09T19:43:23.164Z,990.43
2023-12-09T19:45:08.204Z,990.38
2023-12-09T19:46:53.140Z,990.39
2023-12-09T19:48:38.217Z,990.39
2023-12-09T19:50:24.695Z,990.5
2023-12-09T19:52:08.139Z,990.52
2023-12-09T19:53:53.203Z,990.75
2023-12-09T19:55:38.197Z,990.76
2023-12-09T19:57:23.166Z,990.78
2023-12-09T19:59:08.180Z,990.73
2023-12-09T20:00:53.164Z,990.82
2023-12-09T20:02:38.197Z,990.86
2023-12-09T20:04:23.282Z,990.96
2023-12-09T20:06:08.192Z,991.07
2023-12-09T20:07:53.151Z,991.01
2023-12-09T20:09:38.207Z,991
2023-12-09T20:11:23.174Z,990.97
2023-12-09T20:13:08.160Z,991.07
2023-12-09T20:14:53.175Z,991.12
2023-12-09T20:16:38.157Z,991.21
2023-12-09T20:18:23.217Z,991.39
2023-12-09T20:20:08.237Z,991.29
2023-12-09T20:21:53.211Z,991.34
2023-12-09T20:23:38.171Z,991.46
2023-12-09T20:25:23.178Z,991.48
2023-12-09T20:27:08.247Z,991.66
2023-12-09T20:28:53.157Z,991.64
2023-12-09T20:30:38.236Z,991.73
2023-12-09T20:32:23.183Z,991.93
2023-12-09T20:34:08.276Z,991.97
2023-12-09T20:35:53.169Z,992.06
2023-12-09T20:37:38.196Z,992.16
2023-12-09T20:39:23.242Z,992.18
2023-12-09T20:41:08.201Z,992.28
2023-12-09T20:42:53.220Z,992.34
2023-12-09T20:44:38.209Z,992.34
2023-12-09T20:46:23.241Z,992.35
2023-12-09T20:48:08.388Z,992.46
2023-12-09T20:49:53.226Z,992.39
2023-12-09T20:51:38.306Z,992.54
2023-12-09T20:53:23.532Z,992.61
2023-12-09T20:55:08.225Z,992.59
2023-12-09T20:56:53.264Z,992.62
2023-12-09T20:58:38.234Z,992.71
2023-12-09T21:00:23.246Z,992.67
2023-12-09T21:02:08.507Z,992.89
2023-12-09T21:03:53.312Z,992.82
2023-12-09T21:05:38.227Z,992.82
2023-12-09T21:07:23.312Z,992.91
2023-12-09T21:09:08.389Z,992.89
2023-12-09T21:10:53.281Z,992.96
2023-12-09T21:12:38.235Z,992.94
2023-12-09T21:14:23.256Z,992.97
2023-12-09T21:16:08.254Z,992.89
2023-12-09T21:17:53.365Z,993.04
2023-12-09T21:19:38.327Z,993.05
2023-12-09T21:21:23.315Z,992.92
2023-12-09T21:23:08.551Z,993.12
2023-12-09T21:24:53.284Z,993.16
2023-12-09T21:26:38.274Z,993.18
2023-12-09T21:28:23.305Z,993.28
2023-12-09T21:30:08.341Z,993.26
2023-12-09T21:31:53.269Z,993.2